Time;durP1;ratioP1;P1;durP2;ratioP2;P2;SDS_P1;SDS_P2;PMS_P1;PMS_P2;Temp;Humidity;BMP_temperature;BMP_pressure;BME280_temperature;BME280_humidity;BME280_pressure;Samples;Min_cycle;Max_cycle;Signal;HPM_P1;HPM_P2
2022/02/06 00:00:44;;;;;;;42.38;24.30;;;;;;;11.18;32.33;99972.14;1659173;84;21564;-62
2022/02/06 00:03:11;;;;;;;44.60;25.72;;;;;;;11.08;32.69;99966.46;1659421;86;22108;-61
2022/02/06 00:05:38;;;;;;;44.88;24.70;;;;;;;10.80;33.06;99962.61;1691276;84;21015;-61
2022/02/06 00:08:10;;;;;;;43.98;24.98;;;;;;;10.51;33.38;99962.80;1690924;84;21023;-74
2022/02/06 00:10:34;;;;;;;40.43;23.18;;;;;;;10.82;33.45;99956.69;1689939;83;21034;-62
2022/02/06 00:13:00;;;;;;;39.08;21.05;;;;;;;10.91;33.35;99950.34;1686196;84;22341;-65
2022/02/06 00:15:27;;;;;;;39.38;21.85;;;;;;;11.33;32.95;99952.43;1686438;83;21173;-60
2022/02/06 00:17:53;;;;;;;37.53;20.85;;;;;;;11.38;33.07;99950.03;1657716;85;21062;-61
2022/02/06 00:20:24;;;;;;;38.95;21.65;;;;;;;11.67;32.86;99945.51;1690527;84;21003;-61
2022/02/06 00:22:54;;;;;;;35.60;19.85;;;;;;;11.80;32.73;99933.77;1689320;83;21086;-63
2022/02/06 00:28:18;;;;;;;38.28;20.85;;;;;;;11.35;33.41;99934.76;1690436;84;21433;-61
2022/02/06 00:30:41;;;;;;;37.03;20.82;;;;;;;11.41;33.44;99937.10;1689692;83;21019;-72
2022/02/06 00:33:09;;;;;;;34.73;18.23;;;;;;;11.60;33.31;99919.88;1690047;83;21474;-61
2022/02/06 00:35:55;;;;;;;32.30;19.25;;;;;;;11.65;33.34;99931.83;1681723;85;21113;-60
2022/02/06 00:43:19;;;;;;;26.73;14.60;;;;;;;11.54;33.85;99913.63;1681862;85;20984;-63
2022/02/06 00:45:45;;;;;;;26.17;16.17;;;;;;;11.79;33.66;99912.58;1682979;84;20916;-62
2022/02/06 00:48:13;;;;;;;26.10;14.98;;;;;;;11.82;33.77;99916.11;1656855;86;21055;-64
2022/02/06 00:50:46;;;;;;;26.87;15.65;;;;;;;11.92;33.62;99910.51;1691264;84;21185;-62
2022/02/06 00:53:15;;;;;;;26.33;15.35;;;;;;;11.85;33.86;99898.73;1682372;84;21612;-68
2022/02/06 00:55:36;;;;;;;30.30;17.60;;;;;;;11.58;34.13;99897.88;1681597;83;21003;-70
2022/02/06 00:58:03;;;;;;;28.73;16.67;;;;;;;11.52;34.29;99899.98;1682298;83;21141;-64
2022/02/06 01:00:31;;;;;;;25.55;14.98;;;;;;;11.52;34.59;99892.16;1681594;83;21113;-61
2022/02/06 01:02:58;;;;;;;25.15;14.85;;;;;;;11.66;34.38;99891.66;1681751;85;21044;-61
2022/02/06 01:05:24;;;;;;;29.27;14.05;;;;;;;11.91;34.04;99890.11;1676584;85;21176;-62
2022/02/06 01:07:53;;;;;;;25.60;15.48;;;;;;;11.85;33.96;99884.38;1676278;84;21061;-79
2022/02/06 01:10:19;;;;;;;21.82;12.55;;;;;;;11.45;34.71;99885.61;1639946;85;22619;-61
2022/02/06 01:12:54;;;;;;;24.05;12.43;;;;;;;11.52;34.78;99888.25;1664000;85;22457;-62
2022/02/06 01:15:23;;;;;;;23.60;13.95;;;;;;;11.70;34.73;99878.51;1653911;86;21012;-62
2022/02/06 01:17:50;;;;;;;23.60;14.68;;;;;;;11.62;34.84;99878.20;1652996;85;21196;-62
2022/02/06 01:20:23;;;;;;;24.52;15.50;;;;;;;11.80;34.75;99879.44;1662551;83;21002;-61
2022/02/06 01:23:10;;;;;;;24.00;14.58;;;;;;;12.01;34.54;99875.36;1654104;85;20949;-59
2022/02/06 01:25:26;;;;;;;;;;;;;;;12.13;34.39;99865.10;1652031;86;21037;-60
2022/02/06 01:27:55;;;;;;;22.67;13.48;;;;;;;12.19;34.38;99864.27;1653520;85;20444;-72
2022/02/06 01:30:19;;;;;;;22.35;13.15;;;;;;;12.31;34.36;99864.45;1662751;83;21160;-61
2022/02/06 01:32:57;;;;;;;24.37;15.00;;;;;;;12.21;34.46;99865.40;1654035;85;22201;-62
2022/02/06 01:35:29;;;;;;;24.65;14.75;;;;;;;12.33;34.43;99861.95;1653632;85;21001;-67
2022/02/06 01:37:57;;;;;;;22.42;13.48;;;;;;;12.52;34.18;99850.35;1663031;84;21116;-61
2022/02/06 01:40:31;;;;;;;19.85;12.30;;;;;;;12.74;33.91;99849.08;1654038;85;20961;-61
2022/02/06 01:42:53;;;;;;;21.77;12.58;;;;;;;12.78;33.89;99852.08;1663373;83;21839;-61
2022/02/06 02:04:17;;;;;;;18.25;11.35;;;;;;;13.14;33.72;99831.39;1652836;85;20961;-63
2022/02/06 02:06:59;;;;;;;18.90;11.25;;;;;;;13.24;33.53;99824.41;1658573;84;21140;-61
2022/02/06 02:10:16;;;;;;;18.48;11.28;;;;;;;13.35;33.47;99824.24;1654409;85;21156;-60
2022/02/06 02:11:56;;;;;;;16.97;10.28;;;;;;;13.36;33.39;99813.55;1634914;85;20988;-77
2022/02/06 02:14:23;;;;;;;18.50;11.28;;;;;;;13.32;33.21;99814.98;1652684;85;21686;-63
2022/02/06 02:17:17;;;;;;;18.25;10.05;;;;;;;13.42;33.17;99809.80;1655596;84;21011;-61
2022/02/06 02:25:07;;;;;;;20.68;11.22;;;;;;;13.32;33.30;99804.52;1654176;85;21046;-59
2022/02/06 02:27:23;;;;;;;16.45;11.05;;;;;;;13.44;33.11;99805.14;1659446;83;20979;-66
2022/02/06 02:33:05;;;;;;;18.32;11.20;;;;;;;13.48;33.23;99801.88;1660597;85;21064;-61
2022/02/06 02:44:03;;;;;;;17.27;10.38;;;;;;;13.22;33.77;99796.31;1654377;84;21031;-61
2022/02/06 02:46:10;;;;;;;16.20;9.55;;;;;;;13.21;33.84;99799.12;1654731;85;21131;-82
2022/02/06 02:48:33;;;;;;;14.47;8.55;;;;;;;13.15;33.90;99798.17;1660145;84;22372;-62
2022/02/06 02:51:04;;;;;;;14.98;9.73;;;;;;;13.32;33.72;99790.63;1626113;88;21607;-62
2022/02/06 02:53:35;;;;;;;15.30;8.78;;;;;;;13.31;33.78;99791.14;1654538;85;21020;-61
2022/02/06 02:56:09;;;;;;;14.38;9.20;;;;;;;13.42;33.69;99795.41;1654210;84;20976;-81
2022/02/06 03:01:11;;;;;;;13.53;8.98;;;;;;;13.18;33.97;99788.56;1654529;84;21217;-60
2022/02/06 03:03:37;;;;;;;13.72;8.13;;;;;;;13.43;33.77;99787.84;1625909;86;21842;-80
2022/02/06 03:06:04;;;;;;;12.95;8.15;;;;;;;13.35;33.82;99786.28;1653319;86;21083;-61
2022/02/06 03:08:32;;;;;;;12.85;8.20;;;;;;;13.16;34.16;99785.38;1663950;83;21026;-61
2022/02/06 03:11:01;;;;;;;12.50;8.08;;;;;;;13.24;34.15;99783.84;1627174;86;20913;-65
2022/02/06 03:18:29;;;;;;;11.20;7.08;;;;;;;13.12;34.37;99790.23;1654069;85;21075;-60
2022/02/06 03:20:53;;;;;;;15.53;8.13;;;;;;;13.19;34.36;99785.47;1659856;83;21097;-60
2022/02/06 03:23:20;;;;;;;12.45;7.60;;;;;;;13.42;34.09;99775.77;1625942;88;21080;-74
2022/02/06 03:25:52;;;;;;;13.50;8.48;;;;;;;13.68;33.78;99780.80;1653675;85;21364;-64
2022/02/06 03:28:16;;;;;;;13.38;7.20;;;;;;;13.60;33.84;99771.91;1663611;83;20978;-65
2022/02/06 03:30:42;;;;;;;14.63;8.90;;;;;;;13.54;33.97;99775.36;1625983;88;21016;-65
2022/02/06 03:33:10;;;;;;;12.80;8.25;;;;;;;13.63;33.83;99779.31;1654282;86;21010;-59
2022/02/06 03:35:37;;;;;;;13.78;8.10;;;;;;;13.79;33.67;99781.92;1663170;83;21010;-80
2022/02/06 03:38:04;;;;;;;15.20;8.85;;;;;;;13.64;33.89;99779.63;1625822;86;21221;-67
2022/02/06 03:41:00;;;;;;;14.93;8.53;;;;;;;13.76;33.79;99775.28;1654202;86;21008;-61
2022/02/06 03:45:40;;;;;;;13.72;8.48;;;;;;;13.84;33.76;99775.00;1624906;86;21087;-79
2022/02/06 03:48:11;;;;;;;13.50;8.03;;;;;;;14.06;33.48;99775.91;1653975;85;21076;-60
2022/02/06 03:50:33;;;;;;;13.28;8.88;;;;;;;13.98;33.60;99779.61;1663186;84;22672;-60
2022/02/06 03:52:57;;;;;;;12.58;7.80;;;;;;;13.77;33.82;99776.88;1625849;87;20956;-81
2022/02/06 03:55:24;;;;;;;13.85;8.90;;;;;;;13.81;33.99;99775.42;1653673;86;20941;-80
2022/02/06 03:57:51;;;;;;;14.28;8.20;;;;;;;13.78;34.06;99778.98;1664907;83;21642;-60
2022/02/06 04:00:19;;;;;;;14.47;8.65;;;;;;;14.04;33.71;99770.06;1627592;83;21160;-66
2022/02/06 04:02:47;;;;;;;12.18;7.70;;;;;;;14.07;33.68;99772.27;1673069;85;21167;-62
2022/02/06 04:05:14;;;;;;;10.78;7.45;;;;;;;14.15;33.66;99774.59;1677741;83;21174;-83
2022/02/06 04:07:44;;;;;;;12.53;7.87;;;;;;;13.95;33.86;99771.38;1674684;85;21369;-72
2022/02/06 04:10:13;;;;;;;12.60;7.75;;;;;;;13.78;34.11;99773.23;1676303;85;21885;-61
2022/02/06 04:12:43;;;;;;;13.18;7.78;;;;;;;13.72;34.39;99772.80;1673622;85;21096;-64
2022/02/06 04:15:26;;;;;;;11.05;7.12;;;;;;;13.66;34.42;99782.81;1675549;85;22438;-79
2022/02/06 04:17:55;;;;;;;14.73;8.33;;;;;;;14.00;34.02;99773.63;1674843;85;21130;-61
2022/02/06 04:20:15;;;;;;;10.55;6.83;;;;;;;13.80;34.28;99765.17;1674564;85;21028;-62
2022/02/06 04:22:44;;;;;;;11.12;6.65;;;;;;;14.15;33.79;99771.17;1675916;85;20914;-61
2022/02/06 04:25:10;;;;;;;11.80;7.03;;;;;;;13.88;33.96;99767.51;1675035;85;21074;-74
2022/02/06 04:27:37;;;;;;;13.45;8.50;;;;;;;13.85;34.11;99768.73;1668371;85;21484;-84
2022/02/06 04:30:06;;;;;;;13.48;8.35;;;;;;;13.70;34.36;99764.34;1650466;85;21131;-61
2022/02/06 04:32:33;;;;;;;11.57;8.30;;;;;;;13.84;34.25;99761.10;1679561;84;21091;-62
2022/02/06 04:35:00;;;;;;;13.05;8.48;;;;;;;13.83;34.19;99760.30;1666462;85;21020;-61
2022/02/06 04:37:40;;;;;;;12.85;7.92;;;;;;;14.03;33.95;99754.06;1708995;83;20910;-82
2022/02/06 04:45:33;;;;;;;13.68;7.78;;;;;;;13.95;34.02;99766.94;1707933;83;21030;-62
2022/02/06 05:11:14;;;;;;;12.90;7.05;;;;;;;14.09;34.01;99764.97;1705819;83;21101;-61
2022/02/06 05:12:34;;;;;;;11.38;6.95;;;;;;;14.08;34.16;99765.99;1688783;82;21027;-60
2022/02/06 05:14:38;;;;;;;12.63;7.40;;;;;;;14.10;34.19;99771.83;1658157;85;21109;-62
2022/02/06 05:27:27;;;;;;;12.78;8.00;;;;;;;14.38;34.07;99783.11;1685985;82;22452;-60
2022/02/06 05:32:47;;;;;;;11.40;7.25;;;;;;;14.62;33.88;99779.33;1688601;82;21173;-79
2022/02/06 05:35:08;;;;;;;12.47;8.10;;;;;;;14.38;34.08;99784.94;1690103;82;20975;-61
2022/02/06 05:37:34;;;;;;;13.43;7.65;;;;;;;14.29;34.20;99777.88;1691952;84;21541;-61
2022/02/06 05:40:01;;;;;;;14.10;9.13;;;;;;;14.56;33.95;99774.47;1658688;84;21026;-60
2022/02/06 05:42:30;;;;;;;16.23;9.98;;;;;;;14.79;33.63;99779.81;1690415;82;21011;-61
2022/02/06 05:44:57;;;;;;;12.98;8.73;;;;;;;14.62;33.85;99772.77;1688244;82;21808;-61
2022/02/06 05:47:25;;;;;;;12.58;8.03;;;;;;;14.81;33.65;99779.58;1687317;81;21197;-71
2022/02/06 05:49:52;;;;;;;13.32;7.95;;;;;;;14.77;33.70;99774.48;1684773;82;21105;-65
2022/02/06 05:52:19;;;;;;;12.60;7.75;;;;;;;14.92;33.42;99775.41;1688495;82;21015;-73
2022/02/06 05:54:46;;;;;;;14.83;8.90;;;;;;;15.23;33.06;99774.38;1690964;81;21090;-61
2022/02/06 05:57:13;;;;;;;15.98;9.83;;;;;;;15.15;33.13;99770.22;1659475;84;21149;-62
2022/02/06 05:59:39;;;;;;;17.42;9.88;;;;;;;14.90;33.58;99767.77;1690244;82;20985;-66
2022/02/06 06:02:05;;;;;;;12.80;7.97;;;;;;;15.22;33.49;99775.38;1668816;83;21317;-66
2022/02/06 06:04:33;;;;;;;14.98;8.80;;;;;;;15.10;33.59;99774.04;1679395;83;21047;-64
2022/02/06 06:06:59;;;;;;;14.18;8.88;;;;;;;15.29;33.41;99774.77;1676496;83;21498;-61
2022/02/06 06:09:26;;;;;;;16.48;9.48;;;;;;;15.44;33.14;99776.45;1673060;83;21137;-71
2022/02/06 06:11:53;;;;;;;12.75;7.92;;;;;;;15.42;33.12;99777.69;1675507;83;21067;-62
2022/02/06 06:14:19;;;;;;;13.30;7.97;;;;;;;15.51;32.99;99781.60;1671726;83;21087;-73
2022/02/06 06:16:46;;;;;;;13.15;7.92;;;;;;;15.85;32.72;99773.48;1672324;83;21118;-62
2022/02/06 06:19:14;;;;;;;13.58;9.08;;;;;;;15.86;32.63;99774.28;1670066;85;21020;-62
2022/02/06 06:21:43;;;;;;;13.18;9.05;;;;;;;16.24;32.31;99772.45;1668829;83;21029;-61
2022/02/06 06:24:15;;;;;;;13.08;8.20;;;;;;;16.30;32.16;99770.23;1674853;85;21556;-60
2022/02/06 06:26:39;;;;;;;15.03;8.13;;;;;;;16.78;31.65;99774.32;1674333;84;21012;-61
2022/02/06 06:29:06;;;;;;;13.05;8.83;;;;;;;16.78;31.64;99780.41;1672468;85;22223;-60
2022/02/06 06:31:34;;;;;;;17.55;9.50;;;;;;;16.36;32.00;99782.95;1667458;83;21575;-61
2022/02/06 06:34:01;;;;;;;14.70;9.25;;;;;;;15.94;32.52;99781.30;1674639;83;21126;-64
2022/02/06 06:36:30;;;;;;;13.98;9.23;;;;;;;16.01;32.40;99777.23;1674656;83;21064;-66
2022/02/06 06:38:56;;;;;;;14.78;9.25;;;;;;;16.03;32.39;99777.30;1672624;83;21086;-61
2022/02/06 06:41:22;;;;;;;15.23;9.23;;;;;;;15.95;32.52;99772.92;1674068;83;21031;-60
2022/02/06 06:43:48;;;;;;;12.88;8.35;;;;;;;15.61;32.88;99777.08;1674650;83;21068;-61
2022/02/06 06:46:15;;;;;;;14.15;8.68;;;;;;;15.51;33.02;99775.83;1669733;83;21176;-60
2022/02/06 06:48:42;;;;;;;12.95;9.08;;;;;;;15.62;33.03;99769.52;1673173;85;21089;-61
2022/02/06 06:51:09;;;;;;;15.00;8.45;;;;;;;15.26;33.63;99772.59;1673136;83;21109;-61
2022/02/06 06:53:42;;;;;;;15.63;9.15;;;;;;;15.43;33.53;99776.69;1673691;83;21749;-61
2022/02/06 06:56:14;;;;;;;14.38;8.88;;;;;;;15.70;33.24;99769.20;1674970;83;21611;-60
2022/02/06 06:58:43;;;;;;;15.50;10.13;;;;;;;15.91;33.11;99762.55;1667497;84;21111;-64
2022/02/06 07:01:54;;;;;;;16.93;10.13;;;;;;;15.93;32.95;99767.08;1705420;81;21072;-61
2022/02/06 07:03:38;;;;;;;14.63;9.88;;;;;;;16.36;32.56;99768.48;1683536;82;21113;-66
2022/02/06 07:06:05;;;;;;;14.33;9.33;;;;;;;16.32;32.59;99776.56;1705324;82;21440;-61
2022/02/06 07:08:32;;;;;;;14.55;9.63;;;;;;;16.60;32.14;99769.23;1706133;82;20987;-61
2022/02/06 07:10:59;;;;;;;14.15;9.80;;;;;;;16.61;32.04;99768.20;1707300;83;21226;-61
2022/02/06 07:13:26;;;;;;;13.95;9.38;;;;;;;16.53;32.10;99774.11;1700771;83;21001;-64
2022/02/06 07:15:53;;;;;;;15.45;9.95;;;;;;;16.63;32.15;99769.56;1706391;83;21141;-69
2022/02/06 07:18:20;;;;;;;14.83;9.68;;;;;;;16.71;32.20;99777.61;1707631;83;22400;-61
2022/02/06 07:20:48;;;;;;;14.33;9.58;;;;;;;16.89;32.09;99783.20;1707643;83;21523;-63
2022/02/06 07:23:17;;;;;;;13.25;9.00;;;;;;;16.86;32.18;99781.05;1707892;83;20946;-63
2022/02/06 07:25:48;;;;;;;16.87;10.43;;;;;;;16.94;32.16;99775.42;1705836;82;21027;-68
2022/02/06 07:28:17;;;;;;;15.50;10.53;;;;;;;16.94;31.87;99780.69;1672645;85;21109;-60
2022/02/06 07:30:45;;;;;;;16.60;10.63;;;;;;;17.15;31.51;99777.35;1675736;85;21036;-64
2022/02/06 07:33:13;;;;;;;16.77;11.08;;;;;;;17.23;31.53;99781.43;1674951;84;21035;-61
2022/02/06 07:35:41;;;;;;;16.55;9.98;;;;;;;17.15;31.55;99775.23;1675141;85;21158;-81
2022/02/06 07:38:07;;;;;;;15.55;10.45;;;;;;;17.34;31.20;99782.40;1675200;85;21511;-63
2022/02/06 07:40:34;;;;;;;15.25;10.35;;;;;;;17.03;31.60;99784.52;1675406;85;21075;-62
2022/02/06 07:43:01;;;;;;;17.45;11.03;;;;;;;17.11;31.68;99781.50;1674437;85;21163;-67
2022/02/06 07:45:35;;;;;;;;;;;;;;;17.09;31.83;99786.74;1677747;85;21234;-61
2022/02/06 07:48:05;;;;;;;15.72;10.13;;;;;;;17.43;31.59;99784.41;1674669;85;20150;-64
2022/02/06 07:50:32;;;;;;;17.52;10.95;;;;;;;17.48;31.62;99787.13;1675642;85;21451;-61
2022/02/06 07:52:58;;;;;;;18.70;11.83;;;;;;;17.93;31.30;99795.99;1671097;85;21036;-61
2022/02/06 07:55:25;;;;;;;17.65;11.35;;;;;;;17.77;31.58;99794.16;1661719;85;22693;-77
2022/02/06 07:57:52;;;;;;;18.60;12.40;;;;;;;17.87;31.82;99803.02;1672450;85;21161;-63
2022/02/06 08:00:19;;;;;;;17.07;10.98;;;;;;;18.27;30.89;99794.59;1699283;82;21165;-70
2022/02/06 08:02:46;;;;;;;17.50;11.53;;;;;;;18.36;30.80;99792.59;1703816;81;21011;-75
2022/02/06 08:05:16;;;;;;;20.77;11.45;;;;;;;18.41;30.68;99793.16;1716757;81;21088;-61
2022/02/06 08:07:42;;;;;;;17.15;10.88;;;;;;;15.88;33.64;99807.20;1707024;83;21024;-73
2022/02/06 08:10:09;;;;;;;18.10;11.53;;;;;;;16.40;33.82;99806.45;1640229;85;21051;-60
2022/02/06 08:12:44;;;;;;;18.75;11.93;;;;;;;17.54;33.02;99797.23;1683583;83;21174;-69
2022/02/06 08:15:07;;;;;;;21.25;12.23;;;;;;;18.08;32.68;99800.16;1683196;83;20931;-65
2022/02/06 08:17:36;;;;;;;18.23;12.00;;;;;;;19.65;30.67;99793.63;1707308;82;21052;-69
2022/02/06 08:20:09;;;;;;;18.60;12.00;;;;;;;20.03;29.90;99798.34;1706571;82;21140;-60
2022/02/06 08:22:36;;;;;;;18.30;11.60;;;;;;;20.25;29.29;99791.59;1703183;82;21754;-66
2022/02/06 08:25:04;;;;;;;15.77;11.33;;;;;;;20.39;28.97;99799.33;1687363;83;21293;-68
2022/02/06 08:27:32;;;;;;;16.30;10.97;;;;;;;20.34;29.09;99798.50;1654476;84;21334;-70
2022/02/06 08:29:59;;;;;;;16.30;11.63;;;;;;;20.59;28.71;99806.58;1681157;82;21280;-62
2022/02/06 08:32:27;;;;;;;16.03;11.20;;;;;;;19.37;29.69;99811.09;1710406;82;21346;-67
2022/02/06 08:34:55;;;;;;;16.43;12.27;;;;;;;19.24;29.61;99817.58;1709091;82;21261;-63
2022/02/06 08:37:26;;;;;;;16.20;12.00;;;;;;;19.10;29.97;99821.69;1705585;82;21398;-70
2022/02/06 08:39:51;;;;;;;15.73;11.20;;;;;;;19.12;30.51;99817.73;1706977;82;21219;-71
2022/02/06 08:42:18;;;;;;;15.73;11.43;;;;;;;19.51;30.26;99817.56;1709668;82;21536;-65
2022/02/06 08:44:47;;;;;;;15.27;11.00;;;;;;;19.71;30.05;99812.98;1709808;82;21233;-63
2022/02/06 08:47:17;;;;;;;15.43;10.77;;;;;;;19.26;30.52;99818.66;1683098;83;21433;-72
2022/02/06 08:49:44;;;;;;;14.87;10.50;;;;;;;19.13;30.82;99811.42;1708120;82;21341;-61
2022/02/06 08:52:12;;;;;;;16.83;11.03;;;;;;;19.12;30.90;99811.66;1709682;82;21707;-61
2022/02/06 08:54:39;;;;;;;17.43;11.20;;;;;;;19.15;30.90;99806.67;1677189;83;21121;-61
2022/02/06 08:57:15;;;;;;;15.57;11.13;;;;;;;19.03;31.02;99815.80;1674967;83;21285;-61
2022/02/06 08:59:36;;;;;;;14.77;9.80;;;;;;;18.92;31.04;99821.50;1676110;83;21236;-79
2022/02/06 09:02:04;;;;;;;13.00;9.63;;;;;;;18.57;30.99;99810.00;1668345;83;21343;-59
2022/02/06 09:04:30;;;;;;;14.37;9.30;;;;;;;17.81;32.07;99811.91;1660235;84;21314;-60
2022/02/06 09:07:01;;;;;;;16.03;9.57;;;;;;;17.78;32.08;99812.38;1648302;83;21360;-60
2022/02/06 09:09:27;;;;;;;12.20;7.70;;;;;;;17.64;32.55;99807.91;1706447;82;21102;-64
2022/02/06 09:11:54;;;;;;;12.53;7.43;;;;;;;18.15;32.10;99813.97;1703537;82;21260;-62
2022/02/06 09:14:23;;;;;;;11.60;6.73;;;;;;;19.15;30.73;99801.91;1702092;82;21795;-70
2022/02/06 09:16:53;;;;;;;11.43;7.00;;;;;;;19.30;30.43;99803.89;1713606;81;21263;-61
2022/02/06 09:19:20;;;;;;;10.55;6.85;;;;;;;18.67;31.14;99804.82;1713211;81;21584;-68
2022/02/06 09:21:47;;;;;;;11.40;6.67;;;;;;;18.81;30.83;99803.43;1714204;81;20922;-60
2022/02/06 09:24:15;;;;;;;10.93;5.90;;;;;;;18.92;30.82;99805.66;1706443;81;21174;-63
2022/02/06 09:26:42;;;;;;;9.15;6.40;;;;;;;18.99;30.78;99806.26;1704963;82;21164;-61
2022/02/06 09:29:09;;;;;;;10.70;5.80;;;;;;;18.87;31.06;99801.13;1703953;82;20991;-63
2022/02/06 09:31:37;;;;;;;9.78;6.03;;;;;;;18.96;30.88;99790.91;1706438;82;20953;-71
2022/02/06 09:36:32;;;;;;;10.60;5.83;;;;;;;19.07;31.41;99793.13;1703798;82;21009;-63
2022/02/06 09:38:58;;;;;;;9.08;6.00;;;;;;;19.15;31.54;99786.86;1704633;82;21137;-63
2022/02/06 09:41:26;;;;;;;10.18;6.35;;;;;;;19.43;31.64;99781.00;1704144;82;21058;-68
2022/02/06 09:43:54;;;;;;;12.03;6.10;;;;;;;19.60;31.23;99779.55;1702782;82;21129;-62
2022/02/06 09:46:20;;;;;;;11.40;6.33;;;;;;;19.44;31.02;99782.08;1681819;82;21124;-62
2022/02/06 09:48:47;;;;;;;13.25;6.90;;;;;;;19.41;30.56;99779.14;1702944;82;20964;-63
2022/02/06 09:51:14;;;;;;;8.93;5.62;;;;;;;19.24;30.78;99790.36;1702754;82;21228;-61
2022/02/06 09:53:41;;;;;;;10.08;6.45;;;;;;;19.20;31.65;99796.14;1704672;82;21041;-66
2022/02/06 09:56:09;;;;;;;9.75;5.30;;;;;;;19.41;32.07;99797.12;1704688;82;21455;-64
2022/02/06 10:01:16;;;;;;;8.48;4.72;;;;;;;19.93;32.07;99790.38;1602178;83;21471;-61
2022/02/06 10:03:46;;;;;;;7.75;4.85;;;;;;;19.87;32.40;99790.06;1706322;83;21231;-64
2022/02/06 10:06:22;;;;;;;9.18;5.05;;;;;;;20.33;32.07;99792.41;1705170;82;21033;-61
2022/02/06 10:08:56;;;;;;;10.60;5.53;;;;;;;20.42;32.08;99802.00;1700000;82;21060;-62
2022/02/06 10:11:23;;;;;;;7.83;5.07;;;;;;;20.58;31.80;99803.67;1703513;82;21035;-66
2022/02/06 10:13:50;;;;;;;10.43;5.77;;;;;;;20.45;31.63;99800.66;1702308;82;21199;-68
2022/02/06 10:16:17;;;;;;;9.73;4.87;;;;;;;20.34;31.10;99795.34;1701563;82;21616;-64
2022/02/06 10:18:45;;;;;;;8.23;5.55;;;;;;;20.41;30.58;99805.67;1701700;82;21204;-60
2022/02/06 10:21:16;;;;;;;8.90;5.80;;;;;;;19.89;31.21;99809.92;1703499;82;21056;-61
2022/02/06 10:23:55;;;;;;;8.70;6.03;;;;;;;19.73;31.41;99808.74;1704169;82;21244;-62
2022/02/06 10:26:34;;;;;;;11.60;6.35;;;;;;;20.00;32.40;99802.03;1700982;82;21282;-61
2022/02/06 10:29:10;;;;;;;9.60;6.00;;;;;;;19.95;31.91;99807.30;1690366;82;21116;-61
2022/02/06 10:31:28;;;;;;;13.07;6.27;;;;;;;19.97;32.28;99815.27;1683879;83;21882;-60
2022/02/06 10:33:55;;;;;;;11.97;6.70;;;;;;;20.04;32.45;99809.23;1704031;82;21486;-61
2022/02/06 10:36:35;;;;;;;11.22;6.80;;;;;;;20.15;32.21;99811.37;1701160;82;21513;-61
2022/02/06 10:39:03;;;;;;;11.13;6.90;;;;;;;20.04;31.46;99817.16;1704508;82;21582;-61
2022/02/06 10:41:31;;;;;;;12.28;6.47;;;;;;;19.77;31.32;99814.59;1645286;85;21320;-65
2022/02/06 10:44:06;;;;;;;10.77;7.37;;;;;;;19.56;31.54;99816.80;1675258;83;21038;-61
2022/02/06 10:46:36;;;;;;;11.53;7.07;;;;;;;19.18;31.64;99824.67;1676041;83;22291;-61
2022/02/06 10:49:06;;;;;;;11.93;7.40;;;;;;;19.29;31.31;99822.92;1703210;81;21322;-62
2022/02/06 10:51:49;;;;;;;10.40;6.60;;;;;;;18.81;31.61;99820.59;1679581;83;21717;-60
2022/02/06 10:54:20;;;;;;;10.35;7.30;;;;;;;18.79;31.23;99819.23;1702993;82;21170;-61
2022/02/06 10:57:10;;;;;;;12.23;7.50;;;;;;;18.50;31.56;99818.63;1702486;82;21039;-61
2022/02/06 10:59:47;;;;;;;13.03;7.22;;;;;;;18.46;31.30;99813.04;1703029;82;22815;-65
2022/02/06 11:02:24;;;;;;;11.60;7.62;;;;;;;18.24;31.40;99811.17;1681833;82;22416;-59
2022/02/06 11:05:09;;;;;;;11.50;7.20;;;;;;;18.19;31.59;99811.64;1686969;81;20932;-65
2022/02/06 11:07:33;;;;;;;12.93;7.62;;;;;;;17.89;32.22;99821.25;1702272;82;21105;-59
2022/02/06 11:10:13;;;;;;;18.15;12.10;;;;;;;18.30;31.90;99824.45;1701950;82;21100;-59
2022/02/06 11:12:42;;;;;;;15.88;8.65;;;;;;;18.40;32.10;99814.01;1675231;83;21013;-65
2022/02/06 11:15:26;;;;;;;12.73;8.55;;;;;;;18.60;31.83;99810.80;1702161;82;21108;-59
2022/02/06 11:18:15;;;;;;;11.53;7.28;;;;;;;18.89;31.78;99807.47;1701657;82;21009;-62
2022/02/06 11:21:04;;;;;;;10.40;7.33;;;;;;;19.11;31.59;99809.54;1699484;82;21223;-65
2022/02/06 11:23:43;;;;;;;10.85;7.95;;;;;;;19.22;31.61;99813.61;1702596;82;21152;-60
2022/02/06 11:26:13;;;;;;;10.53;7.37;;;;;;;19.28;31.86;99813.91;1702975;82;22587;-63
2022/02/06 11:28:40;;;;;;;14.75;8.48;;;;;;;19.61;31.60;99814.98;1698722;82;21166;-60
2022/02/06 11:31:07;;;;;;;13.88;9.43;;;;;;;19.81;30.75;99815.70;1701554;82;21004;-60
2022/02/06 11:33:35;;;;;;;13.05;8.85;;;;;;;19.49;30.94;99817.53;1686010;82;21233;-64
2022/02/06 11:36:11;;;;;;;12.35;8.45;;;;;;;19.49;30.81;99814.89;1679933;82;21507;-65
2022/02/06 11:45:09;;;;;;;11.03;6.78;;;;;;;19.22;30.96;99831.58;1671359;83;20988;-64
2022/02/06 11:47:54;;;;;;;10.20;7.12;;;;;;;19.06;30.90;99834.60;1675116;84;21054;-59
2022/02/06 11:50:21;;;;;;;9.58;6.35;;;;;;;19.23;30.56;99833.16;1675240;83;20996;-65
2022/02/06 11:52:57;;;;;;;9.35;6.05;;;;;;;18.92;30.65;99839.99;1667613;83;20929;-59
2022/02/06 11:55:49;;;;;;;10.38;6.80;;;;;;;18.87;30.73;99837.30;1660076;85;21047;-58
2022/02/06 11:58:31;;;;;;;11.60;6.90;;;;;;;18.88;30.58;99834.41;1685006;82;20986;-65
2022/02/06 12:01:15;;;;;;;9.88;6.25;;;;;;;18.40;31.00;99830.64;1699453;82;22425;-60
2022/02/06 12:04:02;;;;;;;10.78;7.15;;;;;;;18.12;31.22;99834.76;1698737;82;21663;-67
2022/02/06 12:06:53;;;;;;;12.88;6.97;;;;;;;17.73;31.68;99836.80;1687194;82;21014;-62
2022/02/06 12:09:29;;;;;;;13.65;6.97;;;;;;;17.32;32.19;99839.81;1681292;85;20963;-62
2022/02/06 12:12:13;;;;;;;12.05;6.92;;;;;;;17.21;32.30;99844.09;1689688;82;20951;-60
2022/02/06 12:14:53;;;;;;;11.53;7.17;;;;;;;17.06;32.82;99844.62;1656071;85;20983;-61
2022/02/06 12:17:36;;;;;;;10.95;6.72;;;;;;;17.21;32.69;99840.94;1689822;81;21496;-60
2022/02/06 12:20:10;;;;;;;9.73;6.78;;;;;;;17.37;32.65;99851.22;1662495;84;20904;-60
2022/02/06 12:22:42;;;;;;;11.55;7.53;;;;;;;17.20;32.90;99852.52;1687021;82;22553;-58
2022/02/06 12:25:34;;;;;;;9.75;6.75;;;;;;;17.19;32.87;99847.47;1658606;84;21015;-60
2022/02/06 12:28:26;;;;;;;10.70;7.15;;;;;;;17.18;32.94;99851.95;1688911;82;21151;-65
2022/02/06 12:31:19;;;;;;;12.13;8.53;;;;;;;17.18;33.15;99863.80;1660106;84;21576;-61
2022/02/06 12:33:55;;;;;;;12.93;7.75;;;;;;;17.21;33.24;99855.43;1686883;82;21126;-60
2022/02/06 12:39:35;;;;;;;12.28;8.20;;;;;;;17.22;33.32;99853.59;1690485;82;21129;-61
2022/02/06 12:41:59;;;;;;;13.38;8.53;;;;;;;17.12;33.49;99862.13;1688402;82;22972;-58
2022/02/06 12:44:28;;;;;;;13.32;8.70;;;;;;;17.14;33.39;99857.41;1662419;84;21490;-59
2022/02/06 12:47:01;;;;;;;13.70;8.93;;;;;;;17.15;33.47;99864.78;1689311;82;21552;-61
2022/02/06 12:49:31;;;;;;;13.60;8.80;;;;;;;17.35;33.29;99861.70;1691543;82;21102;-59
2022/02/06 12:51:58;;;;;;;15.65;9.40;;;;;;;17.31;33.29;99865.33;1690549;82;21023;-61
2022/02/06 12:54:25;;;;;;;17.10;10.70;;;;;;;17.23;33.21;99863.08;1691880;82;21092;-62
2022/02/06 12:56:55;;;;;;;18.82;10.98;;;;;;;17.23;33.27;99858.61;1689210;82;21492;-60
2022/02/06 12:59:22;;;;;;;17.52;11.57;;;;;;;17.24;33.30;99861.55;1691198;82;21169;-60
2022/02/06 13:01:49;;;;;;;14.47;10.60;;;;;;;17.18;33.39;99859.84;1686292;82;20887;-60
2022/02/06 13:04:18;;;;;;;21.12;13.45;;;;;;;17.36;33.28;99856.74;1701131;81;21045;-63
2022/02/06 13:06:46;;;;;;;17.73;12.55;;;;;;;17.08;33.66;99850.44;1684242;83;21166;-62
2022/02/06 13:09:32;;;;;;;18.95;12.98;;;;;;;17.27;33.48;99856.30;1682223;83;21030;-62
2022/02/06 13:12:13;;;;;;;19.37;12.82;;;;;;;17.29;33.63;99850.82;1713929;81;21037;-65
2022/02/06 13:15:09;;;;;;;22.48;12.20;;;;;;;17.25;33.91;99853.12;1679810;82;21151;-60
2022/02/06 13:18:01;;;;;;;18.40;12.15;;;;;;;17.37;34.00;99858.34;1713878;81;21087;-60
2022/02/06 13:20:27;;;;;;;16.87;10.80;;;;;;;17.53;33.71;99862.02;1678123;83;21162;-60
2022/02/06 13:23:10;;;;;;;13.03;9.13;;;;;;;17.81;33.18;99872.55;1711847;81;21012;-60
2022/02/06 13:25:54;;;;;;;11.30;8.03;;;;;;;17.82;32.69;99866.75;1709635;81;21117;-65